createdAt,value
2024-02-27T00:00:25.495Z,54.20
2024-02-27T00:02:52.335Z,54.20
2024-02-27T00:05:19.295Z,54.10
2024-02-27T00:07:47.416Z,54.10
2024-02-27T00:10:14.519Z,54.10
2024-02-27T00:12:41.473Z,55.00
2024-02-27T00:15:08.975Z,55.30
2024-02-27T00:17:35.916Z,55.30
2024-02-27T00:20:02.986Z,55.30
2024-02-27T00:22:29.910Z,55.40
2024-02-27T00:24:57.963Z,55.40
2024-02-27T00:27:24.761Z,55.40
2024-02-27T00:29:51.524Z,55.30
2024-02-27T00:32:18.279Z,55.20
2024-02-27T00:34:45.139Z,55.30
2024-02-27T00:37:11.872Z,55.60
2024-02-27T00:39:38.616Z,55.60
2024-02-27T00:42:09.971Z,55.70
2024-02-27T00:44:37.079Z,55.70
2024-02-27T00:47:04.190Z,55.90
2024-02-27T00:49:31.135Z,56.60
2024-02-27T00:51:57.932Z,55.70
2024-02-27T00:54:24.761Z,56.00
2024-02-27T00:56:51.864Z,56.20
2024-02-27T00:59:20.019Z,56.10
2024-02-27T01:01:46.866Z,56.30
2024-02-27T01:04:13.723Z,56.40
2024-02-27T01:06:40.699Z,56.40
2024-02-27T01:09:07.649Z,56.40
2024-02-27T01:11:34.667Z,56.40
2024-02-27T01:14:01.532Z,56.40
2024-02-27T01:16:29.718Z,56.50
2024-02-27T01:18:56.675Z,56.50
2024-02-27T01:21:23.562Z,56.60
2024-02-27T01:23:50.478Z,56.50
2024-02-27T01:26:17.259Z,56.50
2024-02-27T01:28:44.033Z,56.50
2024-02-27T01:31:10.796Z,56.60
2024-02-27T01:33:39.096Z,56.70
2024-02-27T01:36:06.849Z,56.60
2024-02-27T01:38:33.776Z,56.70
2024-02-27T01:41:00.568Z,56.70
2024-02-27T01:43:27.609Z,56.70
2024-02-27T01:46:05.005Z,56.70
2024-02-27T01:48:32.741Z,56.60
2024-02-27T01:51:01.815Z,56.60
2024-02-27T01:53:29.499Z,56.60
2024-02-27T01:55:56.857Z,56.50
2024-02-27T01:58:23.924Z,56.70
2024-02-27T02:00:51.024Z,56.70
2024-02-27T02:03:21.820Z,56.80
2024-02-27T02:05:48.933Z,56.80
2024-02-27T02:08:17.591Z,56.80
2024-02-27T02:10:44.566Z,56.90
2024-02-27T02:13:11.738Z,56.90
2024-02-27T02:15:38.578Z,56.90
2024-02-27T02:18:05.690Z,57.00
2024-02-27T02:20:33.943Z,57.00
2024-02-27T02:23:00.852Z,57.00
2024-02-27T02:25:30.504Z,57.20
2024-02-27T02:27:57.450Z,57.30
2024-02-27T02:30:24.303Z,57.20
2024-02-27T02:32:52.134Z,57.20
2024-02-27T02:35:19.318Z,57.20
2024-02-27T02:37:49.575Z,57.20
2024-02-27T02:40:16.970Z,57.20
2024-02-27T02:42:44.525Z,57.20
2024-02-27T02:45:11.856Z,57.20
2024-02-27T02:47:39.036Z,57.20
2024-02-27T02:50:07.678Z,57.20
2024-02-27T02:52:35.907Z,57.30
2024-02-27T02:55:04.535Z,57.30
2024-02-27T02:57:31.460Z,57.40
2024-02-27T02:59:58.439Z,57.40
2024-02-27T03:02:25.364Z,57.40
2024-02-27T03:04:52.085Z,57.40
2024-02-27T03:07:18.965Z,57.50
2024-02-27T03:09:45.837Z,57.60
2024-02-27T03:12:14.032Z,57.50
2024-02-27T03:14:42.849Z,57.40
2024-02-27T03:17:13.714Z,57.40
2024-02-27T03:19:40.664Z,57.40
2024-02-27T03:22:07.492Z,57.40
2024-02-27T03:24:34.448Z,57.40
2024-02-27T03:27:01.377Z,57.50
2024-02-27T03:29:29.690Z,57.50
2024-02-27T03:31:56.630Z,57.50
2024-02-27T03:34:23.597Z,57.50
2024-02-27T03:36:50.322Z,57.60
2024-02-27T03:39:17.476Z,57.70
2024-02-27T03:41:44.274Z,57.70
2024-02-27T03:44:11.448Z,57.80
2024-02-27T03:46:39.473Z,58.00
2024-02-27T03:49:06.387Z,58.00
2024-02-27T03:51:33.313Z,58.20
2024-02-27T03:54:00.102Z,58.20
2024-02-27T03:56:27.414Z,58.30
2024-02-27T03:58:54.115Z,58.30
2024-02-27T04:01:21.005Z,58.30
2024-02-27T04:03:49.092Z,58.40
2024-02-27T04:06:17.167Z,58.50
2024-02-27T04:08:44.058Z,58.50
2024-02-27T04:11:13.027Z,58.50
2024-02-27T04:13:39.869Z,58.60
2024-02-27T04:16:07.011Z,58.70
2024-02-27T04:18:34.192Z,58.80
2024-02-27T04:21:02.659Z,58.80
2024-02-27T04:23:29.654Z,58.80
2024-02-27T04:25:56.457Z,58.80
2024-02-27T04:28:23.235Z,58.80
2024-02-27T04:30:50.052Z,58.90
2024-02-27T04:33:16.967Z,59.60
2024-02-27T04:35:43.787Z,58.80
2024-02-27T04:38:11.886Z,58.80
2024-02-27T04:40:38.631Z,58.70
2024-02-27T04:43:05.404Z,58.70
2024-02-27T04:45:32.230Z,58.60
2024-02-27T04:47:59.382Z,58.70
2024-02-27T04:50:26.565Z,58.70
2024-02-27T04:52:53.561Z,58.60
2024-02-27T04:55:21.721Z,58.70
2024-02-27T04:57:48.440Z,58.70
2024-02-27T05:00:16.235Z,58.60
2024-02-27T05:02:43.038Z,58.50
2024-02-27T05:05:10.239Z,58.50
2024-02-27T05:07:36.997Z,58.50
2024-02-27T05:10:04.139Z,58.40
2024-02-27T05:12:32.275Z,58.30
2024-02-27T05:14:59.154Z,58.30
2024-02-27T05:17:25.960Z,58.30
2024-02-27T05:19:52.694Z,58.20
2024-02-27T05:22:19.504Z,58.80
2024-02-27T05:24:46.262Z,58.10
2024-02-27T05:27:13.317Z,58.20
2024-02-27T05:29:41.537Z,58.30
2024-02-27T05:32:08.466Z,58.30
2024-02-27T05:34:35.356Z,58.40
2024-02-27T05:37:02.241Z,58.40
2024-02-27T05:39:29.165Z,58.50
2024-02-27T05:41:56.071Z,58.50
2024-02-27T05:44:23.120Z,58.50
2024-02-27T05:46:51.316Z,58.40
2024-02-27T05:49:18.480Z,58.40
2024-02-27T05:51:45.374Z,58.40
2024-02-27T05:54:12.481Z,58.40
2024-02-27T05:56:39.250Z,58.40
2024-02-27T05:59:06.004Z,58.50
2024-02-27T06:01:32.793Z,58.60
2024-02-27T06:04:00.945Z,58.50
2024-02-27T06:06:27.807Z,58.50
2024-02-27T06:08:54.550Z,58.60
2024-02-27T06:11:21.367Z,58.50
2024-02-27T06:13:48.156Z,58.50
2024-02-27T06:16:15.070Z,58.40
2024-02-27T06:18:41.962Z,58.50
2024-02-27T06:21:10.294Z,58.40
2024-02-27T06:23:37.250Z,58.60
2024-02-27T06:26:04.392Z,58.50
2024-02-27T06:28:31.179Z,58.60
2024-02-27T06:30:57.912Z,58.50
2024-02-27T06:33:24.919Z,58.50
2024-02-27T06:35:52.188Z,58.60
2024-02-27T06:38:20.404Z,58.50
2024-02-27T06:40:47.126Z,58.40
2024-02-27T06:43:13.871Z,58.40
2024-02-27T06:45:41.203Z,58.30
2024-02-27T06:48:09.055Z,58.30
2024-02-27T06:50:35.923Z,58.30
2024-02-27T06:53:02.671Z,58.30
2024-02-27T06:55:30.766Z,58.40
2024-02-27T06:57:57.482Z,58.40
2024-02-27T07:00:24.346Z,58.40
2024-02-27T07:02:51.315Z,58.50
2024-02-27T07:05:18.386Z,58.50
2024-02-27T07:07:45.370Z,58.60
2024-02-27T07:10:12.233Z,58.60
2024-02-27T07:12:41.636Z,58.70
2024-02-27T07:15:09.003Z,58.90
2024-02-27T07:17:35.899Z,59.00
2024-02-27T07:20:02.961Z,59.00
2024-02-27T07:22:29.768Z,59.20
2024-02-27T07:24:56.581Z,59.30
2024-02-27T07:27:23.382Z,59.40
2024-02-27T07:29:51.736Z,59.60
2024-02-27T07:32:18.564Z,59.80
2024-02-27T07:34:45.469Z,60.00
2024-02-27T07:37:12.412Z,60.20
2024-02-27T07:39:39.233Z,60.40
2024-02-27T07:42:06.435Z,60.60
2024-02-27T07:44:33.224Z,60.80
2024-02-27T07:47:01.290Z,61.10
2024-02-27T07:49:28.084Z,61.20
2024-02-27T07:51:54.978Z,61.30
2024-02-27T07:54:22.344Z,61.30
2024-02-27T07:56:49.052Z,61.50
2024-02-27T07:59:16.363Z,61.20
2024-02-27T08:01:43.273Z,61.00
2024-02-27T08:04:11.502Z,61.00
2024-02-27T08:06:39.270Z,61.20
2024-02-27T08:09:07.671Z,61.20
2024-02-27T08:11:34.554Z,61.20
2024-02-27T08:14:01.297Z,61.20
2024-02-27T08:16:28.115Z,61.40
2024-02-27T08:18:54.975Z,61.30
2024-02-27T08:21:23.201Z,61.30
2024-02-27T08:23:49.963Z,61.50
2024-02-27T08:26:16.729Z,61.50
2024-02-27T08:28:43.499Z,61.50
2024-02-27T08:31:10.216Z,61.60
2024-02-27T08:33:38.838Z,61.60
2024-02-27T08:36:06.421Z,61.70
2024-02-27T08:38:34.644Z,61.10
2024-02-27T08:41:02.048Z,61.50
2024-02-27T08:43:30.261Z,61.50
2024-02-27T08:45:57.916Z,61.20
2024-02-27T08:48:24.753Z,60.80
2024-02-27T08:50:51.809Z,60.70
2024-02-27T08:53:18.571Z,61.00
2024-02-27T08:55:46.593Z,60.80
2024-02-27T08:58:13.368Z,60.60
2024-02-27T09:00:40.133Z,60.80
2024-02-27T09:03:08.385Z,60.60
2024-02-27T09:05:35.512Z,59.50
2024-02-27T09:08:02.316Z,59.30
2024-02-27T09:10:29.031Z,60.10
2024-02-27T09:12:57.088Z,60.50
2024-02-27T09:15:23.846Z,60.40
2024-02-27T09:17:50.725Z,60.30
2024-02-27T09:20:17.641Z,60.50
2024-02-27T09:22:44.383Z,60.50
2024-02-27T09:25:12.350Z,60.50
2024-02-27T09:27:39.064Z,60.70
2024-02-27T09:30:08.647Z,61.00
2024-02-27T09:32:35.521Z,60.80
2024-02-27T09:35:02.397Z,60.70
2024-02-27T09:37:29.191Z,60.10
2024-02-27T09:39:59.575Z,60.70
2024-02-27T09:42:34.999Z,60.30
2024-02-27T09:45:08.351Z,60.70
2024-02-27T09:47:37.851Z,60.60
2024-02-27T09:50:07.575Z,60.50
2024-02-27T09:52:36.401Z,60.70
2024-02-27T09:55:03.501Z,60.50
2024-02-27T09:57:30.767Z,60.50
2024-02-27T09:59:57.639Z,60.50
2024-02-27T10:02:26.000Z,59.50
2024-02-27T10:04:54.330Z,60.30
2024-02-27T10:07:22.085Z,60.70
2024-02-27T10:09:48.845Z,60.20
2024-02-27T10:12:16.054Z,60.40
2024-02-27T10:14:43.038Z,60.30
2024-02-27T10:17:10.618Z,60.30
2024-02-27T10:19:39.891Z,60.00
2024-02-27T10:22:06.908Z,59.80
2024-02-27T10:24:33.874Z,59.80
2024-02-27T10:27:02.769Z,59.60
2024-02-27T10:29:30.962Z,59.00
2024-02-27T10:31:57.914Z,59.30
2024-02-27T10:34:26.845Z,59.40
2024-02-27T10:37:00.033Z,59.40
2024-02-27T10:39:27.600Z,59.10
2024-02-27T10:41:55.156Z,58.40
2024-02-27T10:44:22.130Z,58.80
2024-02-27T10:46:49.318Z,59.10
2024-02-27T10:49:17.394Z,59.00
2024-02-27T10:51:45.636Z,59.00
2024-02-27T10:54:15.656Z,59.00
2024-02-27T10:56:42.503Z,58.90
2024-02-27T10:59:10.511Z,58.90
2024-02-27T11:01:42.195Z,58.70
2024-02-27T11:04:18.385Z,58.80
2024-02-27T11:06:49.840Z,58.90
2024-02-27T11:09:21.704Z,58.90
2024-02-27T11:11:52.481Z,58.80
2024-02-27T11:14:24.060Z,58.80
2024-02-27T11:16:55.623Z,58.70
2024-02-27T11:19:23.464Z,58.60
2024-02-27T11:21:50.947Z,58.60
2024-02-27T11:24:19.644Z,58.20
2024-02-27T11:26:46.841Z,57.70
2024-02-27T11:29:15.811Z,58.30
2024-02-27T11:31:43.296Z,58.50
2024-02-27T11:34:10.167Z,58.50
2024-02-27T11:36:37.093Z,58.60
2024-02-27T11:39:04.042Z,58.60
2024-02-27T11:41:32.904Z,57.90
2024-02-27T11:44:00.138Z,57.50
2024-02-27T11:46:36.353Z,57.60
2024-02-27T11:49:03.410Z,57.80
2024-02-27T11:51:32.286Z,57.90
2024-02-27T11:53:59.328Z,57.70
2024-02-27T11:56:26.554Z,57.70
2024-02-27T11:58:54.846Z,57.70
2024-02-27T12:01:21.945Z,57.50
2024-02-27T12:03:49.654Z,57.60
2024-02-27T12:06:16.719Z,57.50
2024-02-27T12:08:47.734Z,57.40
2024-02-27T12:11:18.595Z,57.40
2024-02-27T12:13:46.074Z,57.40
2024-02-27T12:16:22.460Z,57.30
2024-02-27T12:18:49.522Z,57.10
2024-02-27T12:21:27.627Z,57.00
2024-02-27T12:24:09.668Z,56.90
2024-02-27T12:26:36.450Z,56.30
2024-02-27T12:29:03.349Z,56.50
2024-02-27T12:31:32.178Z,56.40
2024-02-27T12:33:59.429Z,56.20
2024-02-27T12:36:27.016Z,56.20
2024-02-27T12:38:54.996Z,55.90
2024-02-27T12:41:22.587Z,55.60
2024-02-27T12:43:49.885Z,55.60
2024-02-27T12:46:17.569Z,56.00
2024-02-27T12:48:48.618Z,56.20
2024-02-27T12:51:16.437Z,55.80
2024-02-27T12:53:43.442Z,55.90
2024-02-27T12:56:11.413Z,56.00
2024-02-27T12:58:38.119Z,55.70
2024-02-27T13:01:06.253Z,55.70
2024-02-27T13:03:34.721Z,55.60
2024-02-27T13:06:03.048Z,55.60
2024-02-27T13:08:30.008Z,55.30
2024-02-27T13:10:56.901Z,55.30
2024-02-27T13:13:29.957Z,55.20
2024-02-27T13:15:56.802Z,54.80
2024-02-27T13:18:23.656Z,54.80
2024-02-27T13:20:50.453Z,55.00
2024-02-27T13:23:25.385Z,54.90
2024-02-27T13:25:54.310Z,55.00
2024-02-27T13:28:21.360Z,55.20
2024-02-27T13:30:48.306Z,55.20
2024-02-27T13:33:16.538Z,55.00
2024-02-27T13:35:43.500Z,54.90
2024-02-27T13:38:10.213Z,54.70
2024-02-27T13:40:38.491Z,54.90
2024-02-27T13:43:05.334Z,54.80
2024-02-27T13:45:32.186Z,54.70
2024-02-27T13:47:59.069Z,54.80
2024-02-27T13:50:26.209Z,54.20
2024-02-27T13:52:53.220Z,54.40
2024-02-27T13:55:19.971Z,54.50
2024-02-27T13:57:48.253Z,54.20
2024-02-27T14:00:16.225Z,54.50
2024-02-27T14:02:43.044Z,54.80
2024-02-27T14:05:10.082Z,55.00
2024-02-27T14:07:36.810Z,55.00
2024-02-27T14:10:03.952Z,54.90
2024-02-27T14:12:30.834Z,54.50
2024-02-27T14:14:59.328Z,54.70
2024-02-27T14:17:26.093Z,54.40
2024-02-27T14:19:52.905Z,54.30
2024-02-27T14:22:19.689Z,54.00
2024-02-27T14:24:46.735Z,54.50
2024-02-27T14:27:13.662Z,54.40
2024-02-27T14:29:40.529Z,54.00
2024-02-27T14:32:08.679Z,53.80
2024-02-27T14:34:35.587Z,53.80
2024-02-27T14:37:02.430Z,53.90
2024-02-27T14:39:29.251Z,53.80
2024-02-27T14:41:56.397Z,53.70
2024-02-27T14:44:23.233Z,53.50
2024-02-27T14:46:50.550Z,53.70
2024-02-27T14:49:19.046Z,54.00
2024-02-27T14:51:46.052Z,53.80
2024-02-27T14:54:13.169Z,53.90
2024-02-27T14:56:39.981Z,53.80
2024-02-27T14:59:06.753Z,54.20
2024-02-27T15:01:36.591Z,53.70
2024-02-27T15:04:04.298Z,53.60
2024-02-27T15:06:32.630Z,53.40
2024-02-27T15:08:59.387Z,53.50
2024-02-27T15:11:26.234Z,53.70
2024-02-27T15:13:53.036Z,53.90
2024-02-27T15:16:19.724Z,53.90
2024-02-27T15:18:46.600Z,53.90
2024-02-27T15:21:13.496Z,54.00
2024-02-27T15:23:41.544Z,53.70
2024-02-27T15:26:08.333Z,53.70
2024-02-27T15:28:35.118Z,53.90
2024-02-27T15:31:02.144Z,54.10
2024-02-27T15:33:29.042Z,54.10
2024-02-27T15:35:55.802Z,54.10
2024-02-27T15:38:22.677Z,54.10
2024-02-27T15:40:50.781Z,54.10
2024-02-27T15:43:17.508Z,54.10
2024-02-27T15:45:44.738Z,54.00
2024-02-27T15:48:11.728Z,53.80
2024-02-27T15:50:38.762Z,53.90
2024-02-27T15:53:05.697Z,53.70
2024-02-27T15:55:32.484Z,53.70
2024-02-27T15:58:00.598Z,53.90
2024-02-27T16:00:27.424Z,54.00
2024-02-27T16:03:02.303Z,54.10
2024-02-27T16:05:30.932Z,54.10
2024-02-27T16:07:57.999Z,54.00
2024-02-27T16:10:24.736Z,54.10
2024-02-27T16:12:51.552Z,54.00
2024-02-27T16:15:20.079Z,54.10
2024-02-27T16:17:47.596Z,54.10
2024-02-27T16:20:14.736Z,54.00
2024-02-27T16:22:41.516Z,53.90
2024-02-27T16:25:09.089Z,54.10
2024-02-27T16:27:59.921Z,54.30
2024-02-27T16:30:28.074Z,54.40
2024-02-27T16:32:59.604Z,54.50
2024-02-27T16:35:26.483Z,54.60
2024-02-27T16:37:53.213Z,54.40
2024-02-27T16:40:19.970Z,54.50
2024-02-27T16:42:46.813Z,54.50
2024-02-27T16:45:13.693Z,54.50
2024-02-27T16:47:41.777Z,54.60
2024-02-27T16:50:09.240Z,54.60
2024-02-27T16:52:38.931Z,54.70
2024-02-27T16:55:06.875Z,54.90
2024-02-27T17:00:55.689Z,54.80
2024-02-27T17:00:57.290Z,54.80
2024-02-27T17:06:51.339Z,55.00
2024-02-27T17:09:18.416Z,55.00
2024-02-27T17:11:46.949Z,55.70
2024-02-27T17:14:13.872Z,55.00
2024-02-27T17:16:40.710Z,55.00
2024-02-27T17:19:17.916Z,55.00
2024-02-27T17:21:51.858Z,55.20
2024-02-27T17:24:39.015Z,55.10
2024-02-27T17:27:06.102Z,55.20
2024-02-27T17:30:24.490Z,55.40
2024-02-27T17:32:51.373Z,55.10
2024-02-27T17:35:18.205Z,55.40
2024-02-27T17:37:46.351Z,55.40
2024-02-27T17:40:14.083Z,55.30
2024-02-27T17:42:42.120Z,55.40
2024-02-27T17:45:09.605Z,55.50
2024-02-27T17:47:36.365Z,55.50
2024-02-27T17:50:03.234Z,55.60
2024-02-27T17:52:30.113Z,55.60
2024-02-27T17:54:58.257Z,55.70
2024-02-27T17:57:25.052Z,55.70
2024-02-27T17:59:51.801Z,56.40
2024-02-27T18:02:18.654Z,55.70
2024-02-27T18:04:45.472Z,55.80
2024-02-27T18:07:12.446Z,55.80
2024-02-27T18:09:39.302Z,55.90
2024-02-27T18:12:07.962Z,55.90
2024-02-27T18:14:34.769Z,56.00
2024-02-27T18:17:01.459Z,56.00
2024-02-27T18:19:28.359Z,56.00
2024-02-27T18:21:55.159Z,56.10
2024-02-27T18:24:21.952Z,56.10
2024-02-27T18:26:48.786Z,56.10
2024-02-27T18:29:16.915Z,56.10
2024-02-27T18:31:43.645Z,56.10
2024-02-27T18:34:10.441Z,56.20
2024-02-27T18:36:37.238Z,56.20
2024-02-27T18:39:04.217Z,56.20
2024-02-27T18:41:30.960Z,56.20
2024-02-27T18:43:57.660Z,56.20
2024-02-27T18:46:25.757Z,56.20
2024-02-27T18:48:52.745Z,56.30
2024-02-27T18:51:19.609Z,57.20
2024-02-27T18:53:46.515Z,56.40
2024-02-27T18:56:13.282Z,57.40
2024-02-27T18:58:40.160Z,57.40
2024-02-27T19:01:07.046Z,57.40
2024-02-27T19:03:35.433Z,56.60
2024-02-27T19:06:03.609Z,57.50
2024-02-27T19:08:30.759Z,57.50
2024-02-27T19:10:57.898Z,56.60
2024-02-27T19:13:24.961Z,57.50
2024-02-27T19:15:52.150Z,56.70
2024-02-27T19:18:19.271Z,58.20
2024-02-27T19:20:47.598Z,57.60
2024-02-27T19:23:14.410Z,57.60
2024-02-27T19:25:41.203Z,57.60
2024-02-27T19:28:08.052Z,57.60
2024-02-27T19:30:34.898Z,57.50
2024-02-27T19:33:01.830Z,57.60
2024-02-27T19:35:28.761Z,57.60
2024-02-27T19:38:03.234Z,57.60
2024-02-27T19:40:36.912Z,57.50
2024-02-27T19:43:04.129Z,57.50
2024-02-27T19:45:30.969Z,57.50
2024-02-27T19:47:58.106Z,57.50
2024-02-27T19:50:24.899Z,57.40
2024-02-27T19:52:51.708Z,57.40
2024-02-27T19:55:19.843Z,57.40
2024-02-27T19:57:46.746Z,57.30
2024-02-27T20:00:14.164Z,57.20
2024-02-27T20:02:40.941Z,57.20
2024-02-27T20:05:08.317Z,57.20
2024-02-27T20:07:53.292Z,57.10
2024-02-27T20:10:21.891Z,57.00
2024-02-27T20:12:48.770Z,57.10
2024-02-27T20:15:15.695Z,57.10
2024-02-27T20:17:44.439Z,57.00
2024-02-27T20:20:12.029Z,57.00
2024-02-27T20:22:38.989Z,57.00
2024-02-27T20:25:06.635Z,56.20
2024-02-27T20:27:35.040Z,57.00
2024-02-27T20:30:01.792Z,57.00
2024-02-27T20:32:28.681Z,57.00
2024-02-27T20:34:55.567Z,57.00
2024-02-27T20:37:22.444Z,57.00
2024-02-27T20:39:49.431Z,57.10
2024-02-27T20:42:16.378Z,56.80
2024-02-27T20:44:44.652Z,56.90
2024-02-27T20:47:11.663Z,56.70
2024-02-27T20:49:38.418Z,55.90
2024-02-27T20:52:05.727Z,56.70
2024-02-27T20:54:32.512Z,56.70
2024-02-27T20:56:59.889Z,56.70
2024-02-27T20:59:27.181Z,56.70
2024-02-27T21:01:55.517Z,56.60
2024-02-27T21:04:22.275Z,56.60
2024-02-27T21:06:49.147Z,56.70
2024-02-27T21:09:16.091Z,56.40
2024-02-27T21:11:42.823Z,56.40
2024-02-27T21:14:09.712Z,56.50
2024-02-27T21:16:36.499Z,56.50
2024-02-27T21:19:04.833Z,56.30
2024-02-27T21:21:31.725Z,56.40
2024-02-27T21:23:58.480Z,56.40
2024-02-27T21:26:25.375Z,56.40
2024-02-27T21:28:52.079Z,56.40
2024-02-27T21:31:18.840Z,56.40
2024-02-27T21:33:45.681Z,56.40
2024-02-27T21:36:13.910Z,56.40
2024-02-27T21:38:40.740Z,56.50
2024-02-27T21:41:07.504Z,56.50
2024-02-27T21:43:34.240Z,56.50
2024-02-27T21:46:01.128Z,56.40
2024-02-27T21:48:28.207Z,56.50
2024-02-27T21:50:55.085Z,56.50
2024-02-27T21:53:23.145Z,56.50
2024-02-27T21:55:49.917Z,56.40
2024-02-27T21:58:16.950Z,56.40
2024-02-27T22:00:45.106Z,56.30
2024-02-27T22:03:13.689Z,56.40
2024-02-27T22:05:40.500Z,56.30
2024-02-27T22:08:07.588Z,56.40
2024-02-27T22:10:35.737Z,56.40
2024-02-27T22:13:02.489Z,56.40
2024-02-27T22:15:32.170Z,56.40
2024-02-27T22:17:59.085Z,56.40
2024-02-27T22:20:25.810Z,56.50
2024-02-27T22:22:52.600Z,56.30
2024-02-27T22:25:19.438Z,56.40
2024-02-27T22:27:47.599Z,56.50
2024-02-27T22:30:15.099Z,56.50
2024-02-27T22:32:42.083Z,56.60
2024-02-27T22:35:09.496Z,56.60
2024-02-27T22:37:36.352Z,56.60
2024-02-27T22:40:04.761Z,56.50
2024-02-27T22:42:31.552Z,56.50
2024-02-27T22:44:59.673Z,56.50
2024-02-27T22:47:26.547Z,56.40
2024-02-27T22:49:53.378Z,56.50
2024-02-27T22:52:20.156Z,56.60
2024-02-27T22:54:46.939Z,56.40
2024-02-27T22:57:13.832Z,56.40
2024-02-27T22:59:40.641Z,56.40
2024-02-27T23:02:08.857Z,56.40
2024-02-27T23:04:35.581Z,56.40
2024-02-27T23:07:02.472Z,56.30
2024-02-27T23:09:29.508Z,56.30
2024-02-27T23:11:56.402Z,56.40
2024-02-27T23:14:23.131Z,56.40
2024-02-27T23:16:50.148Z,56.30
2024-02-27T23:19:18.236Z,56.30
2024-02-27T23:21:46.679Z,56.40
2024-02-27T23:24:15.033Z,56.50
2024-02-27T23:32:00.144Z,56.50
2024-02-27T23:34:29.702Z,56.80
2024-02-27T23:36:56.844Z,56.70
2024-02-27T23:39:29.788Z,56.70
2024-02-27T23:41:57.072Z,56.70
2024-02-27T23:44:23.991Z,56.80
2024-02-27T23:46:56.716Z,56.80
2024-02-27T23:52:16.728Z,56.80
2024-02-27T23:54:44.200Z,56.90
2024-02-27T23:57:11.512Z,57.00
2024-02-27T23:59:40.438Z,56.90
